sensor_id;sensor_type;location;lat;lon;timestamp;pressure;altitude;pressure_sealevel;temperature;humidity
66206;BME280;53009;52.490;4.976;2023-02-18T00:02:13;102200;;;10.2;100
66206;BME280;53009;52.490;4.976;2023-02-18T00:07:13;102200;;;10.2;100
66206;BME280;53009;52.490;4.976;2023-02-18T00:12:13;102200;;;10.2;100
66206;BME280;53009;52.490;4.976;2023-02-18T00:17:13;102200;;;10.2;100
66206;BME280;53009;52.490;4.976;2023-02-18T00:22:13;102200;;;10.2;100
66206;BME280;53009;52.490;4.976;2023-02-18T00:27:13;102200;;;10.2;100
66206;BME280;53009;52.490;4.976;2023-02-18T00:32:13;102200;;;10.2;100
66206;BME280;53009;52.490;4.976;2023-02-18T00:37:13;102200;;;10.2;100
66206;BME280;53009;52.490;4.976;2023-02-18T00:42:13;102200;;;10.2;100
66206;BME280;53009;52.490;4.976;2023-02-18T00:47:13;102200;;;10.1;100
66206;BME280;53009;52.490;4.976;2023-02-18T00:52:13;102200;;;10.1;100
66206;BME280;53009;52.490;4.976;2023-02-18T00:57:13;102200;;;10.1;100
66206;BME280;53009;52.490;4.976;2023-02-18T01:02:13;102200;;;10.1;100
66206;BME280;53009;52.490;4.976;2023-02-18T01:07:13;102200;;;10.1;100
66206;BME280;53009;52.490;4.976;2023-02-18T01:12:13;102200;;;10.1;100
66206;BME280;53009;52.490;4.976;2023-02-18T01:17:13;102200;;;10.1;100
66206;BME280;53009;52.490;4.976;2023-02-18T01:22:13;102200;;;10.1;100
66206;BME280;53009;52.490;4.976;2023-02-18T01:27:13;102200;;;10;100
66206;BME280;53009;52.490;4.976;2023-02-18T01:32:13;102200;;;10;100
66206;BME280;53009;52.490;4.976;2023-02-18T01:37:13;102200;;;10;100
66206;BME280;53009;52.490;4.976;2023-02-18T01:42:16;102100;;;10;100
66206;BME280;53009;52.490;4.976;2023-02-18T01:47:13;102100;;;10;100
66206;BME280;53009;52.490;4.976;2023-02-18T01:52:14;102100;;;10;100
66206;BME280;53009;52.490;4.976;2023-02-18T01:57:14;102100;;;10;100
66206;BME280;53009;52.490;4.976;2023-02-18T02:02:14;102100;;;10;100
66206;BME280;53009;52.490;4.976;2023-02-18T02:07:13;102100;;;10;100
66206;BME280;53009;52.490;4.976;2023-02-18T02:12:24;102100;;;10;100
66206;BME280;53009;52.490;4.976;2023-02-18T02:17:15;102100;;;10;100
66206;BME280;53009;52.490;4.976;2023-02-18T02:22:28;102000;;;10;100
66206;BME280;53009;52.490;4.976;2023-02-18T02:27:14;102000;;;10;100
66206;BME280;53009;52.490;4.976;2023-02-18T02:32:26;102000;;;10;100
66206;BME280;53009;52.490;4.976;2023-02-18T02:37:14;102000;;;10;100
66206;BME280;53009;52.490;4.976;2023-02-18T02:42:16;102000;;;10;100
66206;BME280;53009;52.490;4.976;2023-02-18T02:47:16;102000;;;10;100
66206;BME280;53009;52.490;4.976;2023-02-18T02:52:14;102000;;;10.1;100
66206;BME280;53009;52.490;4.976;2023-02-18T02:57:48;102000;;;10.1;100
66206;BME280;53009;52.490;4.976;2023-02-18T03:02:17;102000;;;10.1;100
66206;BME280;53009;52.490;4.976;2023-02-18T03:07:14;102000;;;10.2;100
66206;BME280;53009;52.490;4.976;2023-02-18T03:12:15;102000;;;10.2;100
66206;BME280;53009;52.490;4.976;2023-02-18T03:17:14;101900;;;10.3;100
66206;BME280;53009;52.490;4.976;2023-02-18T03:22:15;101900;;;10.3;100
66206;BME280;53009;52.490;4.976;2023-02-18T03:27:14;101900;;;10.4;100
66206;BME280;53009;52.490;4.976;2023-02-18T03:32:14;101900;;;10.4;100
66206;BME280;53009;52.490;4.976;2023-02-18T03:37:13;101900;;;10.4;100
66206;BME280;53009;52.490;4.976;2023-02-18T03:42:14;101900;;;10.4;100
66206;BME280;53009;52.490;4.976;2023-02-18T03:47:13;101800;;;10.4;100
66206;BME280;53009;52.490;4.976;2023-02-18T03:52:13;101900;;;10.5;100
66206;BME280;53009;52.490;4.976;2023-02-18T03:57:13;101900;;;10.5;100
66206;BME280;53009;52.490;4.976;2023-02-18T04:02:13;101800;;;10.5;100
66206;BME280;53009;52.490;4.976;2023-02-18T04:07:13;101900;;;10.5;100
66206;BME280;53009;52.490;4.976;2023-02-18T04:12:13;101800;;;10.5;100
66206;BME280;53009;52.490;4.976;2023-02-18T04:17:13;101800;;;10.4;100
66206;BME280;53009;52.490;4.976;2023-02-18T04:22:13;101800;;;10.5;100
66206;BME280;53009;52.490;4.976;2023-02-18T04:27:13;101800;;;10.4;100
66206;BME280;53009;52.490;4.976;2023-02-18T04:32:13;101800;;;10.4;100
66206;BME280;53009;52.490;4.976;2023-02-18T04:37:13;101800;;;10.4;100
66206;BME280;53009;52.490;4.976;2023-02-18T04:42:13;101800;;;10.3;100
66206;BME280;53009;52.490;4.976;2023-02-18T04:47:13;101800;;;10.3;100
66206;BME280;53009;52.490;4.976;2023-02-18T04:52:13;101800;;;10.3;100
66206;BME280;53009;52.490;4.976;2023-02-18T04:57:13;101800;;;10.4;100
66206;BME280;53009;52.490;4.976;2023-02-18T05:02:13;101800;;;10.3;100
66206;BME280;53009;52.490;4.976;2023-02-18T05:07:13;101800;;;10.4;100
66206;BME280;53009;52.490;4.976;2023-02-18T05:12:13;101800;;;10.4;100
66206;BME280;53009;52.490;4.976;2023-02-18T05:17:13;101800;;;10.4;100
66206;BME280;53009;52.490;4.976;2023-02-18T05:22:13;101800;;;10.4;100
66206;BME280;53009;52.490;4.976;2023-02-18T05:27:13;101800;;;10.4;100
66206;BME280;53009;52.490;4.976;2023-02-18T05:32:13;101800;;;10.4;100
66206;BME280;53009;52.490;4.976;2023-02-18T05:37:13;101800;;;10.4;100
66206;BME280;53009;52.490;4.976;2023-02-18T05:42:13;101800;;;10.4;100
66206;BME280;53009;52.490;4.976;2023-02-18T05:47:13;101700;;;10.4;100
66206;BME280;53009;52.490;4.976;2023-02-18T05:52:13;101800;;;10.4;100
66206;BME280;53009;52.490;4.976;2023-02-18T05:57:13;101800;;;10.4;100
66206;BME280;53009;52.490;4.976;2023-02-18T06:02:13;101800;;;10.4;100
66206;BME280;53009;52.490;4.976;2023-02-18T06:07:13;101700;;;10.4;100
66206;BME280;53009;52.490;4.976;2023-02-18T06:12:13;101700;;;10.4;100
66206;BME280;53009;52.490;4.976;2023-02-18T06:17:17;101700;;;10.4;100
66206;BME280;53009;52.490;4.976;2023-02-18T06:22:13;101700;;;10.3;100
66206;BME280;53009;52.490;4.976;2023-02-18T06:27:13;101700;;;10.4;100
66206;BME280;53009;52.490;4.976;2023-02-18T06:32:13;101700;;;10.3;100
66206;BME280;53009;52.490;4.976;2023-02-18T06:37:13;101700;;;10.3;100
66206;BME280;53009;52.490;4.976;2023-02-18T06:42:13;101700;;;10.3;100
66206;BME280;53009;52.490;4.976;2023-02-18T06:47:13;101700;;;10.3;100
66206;BME280;53009;52.490;4.976;2023-02-18T06:52:13;101700;;;10.3;100
66206;BME280;53009;52.490;4.976;2023-02-18T06:57:13;101700;;;10.2;100
66206;BME280;53009;52.490;4.976;2023-02-18T07:02:13;101700;;;10.3;100
66206;BME280;53009;52.490;4.976;2023-02-18T07:07:13;101700;;;10.3;100
66206;BME280;53009;52.490;4.976;2023-02-18T07:12:13;101700;;;10.3;100
66206;BME280;53009;52.490;4.976;2023-02-18T07:17:13;101700;;;10.3;100
66206;BME280;53009;52.490;4.976;2023-02-18T07:22:13;101700;;;10.2;100
66206;BME280;53009;52.490;4.976;2023-02-18T07:27:13;101700;;;10.2;100
66206;BME280;53009;52.490;4.976;2023-02-18T07:32:14;101700;;;10.2;100
66206;BME280;53009;52.490;4.976;2023-02-18T07:37:13;101700;;;10.2;100
66206;BME280;53009;52.490;4.976;2023-02-18T07:42:13;101700;;;10.2;100
66206;BME280;53009;52.490;4.976;2023-02-18T07:47:14;101700;;;10.2;100
66206;BME280;53009;52.490;4.976;2023-02-18T07:52:13;101700;;;10.1;100
66206;BME280;53009;52.490;4.976;2023-02-18T07:57:13;101700;;;10.1;100
66206;BME280;53009;52.490;4.976;2023-02-18T08:02:14;101700;;;10.1;100
66206;BME280;53009;52.490;4.976;2023-02-18T08:07:14;101700;;;10;100
66206;BME280;53009;52.490;4.976;2023-02-18T08:12:14;101700;;;9.9;100
66206;BME280;53009;52.490;4.976;2023-02-18T08:17:13;101700;;;10;100
66206;BME280;53009;52.490;4.976;2023-02-18T08:22:13;101700;;;10;100
66206;BME280;53009;52.490;4.976;2023-02-18T08:27:13;101700;;;10;100
66206;BME280;53009;52.490;4.976;2023-02-18T08:32:13;101700;;;10;100
66206;BME280;53009;52.490;4.976;2023-02-18T08:37:13;101700;;;10.1;100
66206;BME280;53009;52.490;4.976;2023-02-18T08:42:13;101700;;;10.1;100
66206;BME280;53009;52.490;4.976;2023-02-18T08:47:13;101700;;;10.1;100
66206;BME280;53009;52.490;4.976;2023-02-18T08:52:13;101700;;;10.2;100
66206;BME280;53009;52.490;4.976;2023-02-18T08:57:13;101700;;;10.2;100
66206;BME280;53009;52.490;4.976;2023-02-18T09:02:14;101700;;;10.2;100
66206;BME280;53009;52.490;4.976;2023-02-18T09:07:13;101700;;;10.2;100
66206;BME280;53009;52.490;4.976;2023-02-18T09:12:14;101700;;;10.3;100
66206;BME280;53009;52.490;4.976;2023-02-18T09:17:13;101700;;;10.4;100
66206;BME280;53009;52.490;4.976;2023-02-18T09:22:13;101800;;;10.5;100
66206;BME280;53009;52.490;4.976;2023-02-18T09:27:14;101800;;;10.5;100
66206;BME280;53009;52.490;4.976;2023-02-18T09:32:14;101800;;;10.5;100
66206;BME280;53009;52.490;4.976;2023-02-18T09:37:13;101800;;;10.4;100
66206;BME280;53009;52.490;4.976;2023-02-18T09:42:14;101800;;;10.4;100
66206;BME280;53009;52.490;4.976;2023-02-18T09:47:14;101800;;;10.5;100
66206;BME280;53009;52.490;4.976;2023-02-18T09:52:15;101800;;;10.7;100
66206;BME280;53009;52.490;4.976;2023-02-18T09:57:14;101800;;;10.8;100
66206;BME280;53009;52.490;4.976;2023-02-18T10:02:13;101800;;;11;100
66206;BME280;53009;52.490;4.976;2023-02-18T10:07:20;101800;;;11.1;100
66206;BME280;53009;52.490;4.976;2023-02-18T10:12:15;101800;;;11;100
66206;BME280;53009;52.490;4.976;2023-02-18T10:17:14;101800;;;11;100
66206;BME280;53009;52.490;4.976;2023-02-18T10:22:14;101800;;;11;100
66206;BME280;53009;52.490;4.976;2023-02-18T10:27:15;101800;;;11;100
66206;BME280;53009;52.490;4.976;2023-02-18T10:32:15;101800;;;11.1;100
66206;BME280;53009;52.490;4.976;2023-02-18T10:37:23;101800;;;11.6;100
66206;BME280;53009;52.490;4.976;2023-02-18T10:42:17;101800;;;11.9;100
66206;BME280;53009;52.490;4.976;2023-02-18T10:47:15;101800;;;11.6;100
66206;BME280;53009;52.490;4.976;2023-02-18T10:52:15;101800;;;11.4;100
66206;BME280;53009;52.490;4.976;2023-02-18T10:57:14;101800;;;11.5;100
66206;BME280;53009;52.490;4.976;2023-02-18T11:02:15;101800;;;11.4;100
66206;BME280;53009;52.490;4.976;2023-02-18T11:07:15;101800;;;11.4;100
66206;BME280;53009;52.490;4.976;2023-02-18T11:12:14;101800;;;11.3;100
66206;BME280;53009;52.490;4.976;2023-02-18T11:17:15;101800;;;11.4;100
66206;BME280;53009;52.490;4.976;2023-02-18T11:22:14;101800;;;11.6;100
66206;BME280;53009;52.490;4.976;2023-02-18T11:27:17;101800;;;11.6;100
66206;BME280;53009;52.490;4.976;2023-02-18T11:32:14;101800;;;11.6;100
66206;BME280;53009;52.490;4.976;2023-02-18T11:37:16;101800;;;11.9;100
66206;BME280;53009;52.490;4.976;2023-02-18T11:42:14;101800;;;12.2;100
66206;BME280;53009;52.490;4.976;2023-02-18T11:47:19;101800;;;12.1;100
66206;BME280;53009;52.490;4.976;2023-02-18T11:52:16;101800;;;12.1;100
66206;BME280;53009;52.490;4.976;2023-02-18T11:57:14;101800;;;12.2;100
66206;BME280;53009;52.490;4.976;2023-02-18T12:02:27;101800;;;12;100
66206;BME280;53009;52.490;4.976;2023-02-18T12:07:14;101800;;;12;100
66206;BME280;53009;52.490;4.976;2023-02-18T12:12:15;101800;;;12;100
66206;BME280;53009;52.490;4.976;2023-02-18T12:17:20;101800;;;12.1;100
66206;BME280;53009;52.490;4.976;2023-02-18T12:22:15;101800;;;12.3;100
66206;BME280;53009;52.490;4.976;2023-02-18T12:27:15;101800;;;12.3;100
66206;BME280;53009;52.490;4.976;2023-02-18T12:32:16;101800;;;12.2;100
66206;BME280;53009;52.490;4.976;2023-02-18T12:37:21;101800;;;12.2;100
66206;BME280;53009;52.490;4.976;2023-02-18T12:42:18;101800;;;12.4;100
66206;BME280;53009;52.490;4.976;2023-02-18T12:47:18;101800;;;12.4;100
66206;BME280;53009;52.490;4.976;2023-02-18T12:52:17;101900;;;12.3;100
66206;BME280;53009;52.490;4.976;2023-02-18T12:57:18;101900;;;12.3;100
66206;BME280;53009;52.490;4.976;2023-02-18T13:02:17;101900;;;12.3;100
66206;BME280;53009;52.490;4.976;2023-02-18T13:07:48;101900;;;12.3;100
66206;BME280;53009;52.490;4.976;2023-02-18T13:12:15;101800;;;12.2;100
66206;BME280;53009;52.490;4.976;2023-02-18T13:17:14;101900;;;12.2;100
66206;BME280;53009;52.490;4.976;2023-02-18T13:22:14;101900;;;12.2;100
66206;BME280;53009;52.490;4.976;2023-02-18T13:27:15;101900;;;12.2;100
66206;BME280;53009;52.490;4.976;2023-02-18T13:32:15;101900;;;12.4;100
66206;BME280;53009;52.490;4.976;2023-02-18T13:37:15;101900;;;12.5;100
66206;BME280;53009;52.490;4.976;2023-02-18T13:42:23;101900;;;12.6;100
66206;BME280;53009;52.490;4.976;2023-02-18T13:47:24;101900;;;12.5;100
66206;BME280;53009;52.490;4.976;2023-02-18T13:48:25;101900;;;12.5;100
66206;BME280;53009;52.490;4.976;2023-02-18T13:53:24;101900;;;12.5;100
66206;BME280;53009;52.490;4.976;2023-02-18T13:54:42;101900;;;12.4;100
66206;BME280;53009;52.490;4.976;2023-02-18T13:56:52;101900;;;12.4;100
66206;BME280;53009;52.490;4.976;2023-02-18T13:57:58;101900;;;12.4;100
66206;BME280;53009;52.490;4.976;2023-02-18T14:01:05;101900;;;12.4;100
66206;BME280;53009;52.490;4.976;2023-02-18T14:03:20;101900;;;12.4;100
66206;BME280;53009;52.490;4.976;2023-02-18T14:06:29;101900;;;12.4;100
66206;BME280;53009;52.490;4.976;2023-02-18T14:08:38;101900;;;12.4;100
66206;BME280;53009;52.490;4.976;2023-02-18T14:13:39;101900;;;12.3;100
66206;BME280;53009;52.490;4.976;2023-02-18T14:17:32;101900;;;12.2;100
66206;BME280;53009;52.490;4.976;2023-02-18T14:19:22;101900;;;12.2;100
66206;BME280;53009;52.490;4.976;2023-02-18T14:20:45;101900;;;12.2;100
66206;BME280;53009;52.490;4.976;2023-02-18T14:21:51;101900;;;12.2;100
66206;BME280;53009;52.490;4.976;2023-02-18T14:26:29;101900;;;12.2;100
66206;BME280;53009;52.490;4.976;2023-02-18T14:27:08;101900;;;12.2;100
66206;BME280;53009;52.490;4.976;2023-02-18T14:28:34;101900;;;12.2;100
66206;BME280;53009;52.490;4.976;2023-02-18T14:31:28;101900;;;12.2;100
66206;BME280;53009;52.490;4.976;2023-02-18T14:33:29;101900;;;12.2;100
66206;BME280;53009;52.490;4.976;2023-02-18T14:37:42;101900;;;12.2;100
66206;BME280;53009;52.490;4.976;2023-02-18T14:41:42;101900;;;12.2;100
66206;BME280;53009;52.490;4.976;2023-02-18T14:46:08;101900;;;12.1;100
66206;BME280;53009;52.490;4.976;2023-02-18T14:47:34;101900;;;12.1;100
66206;BME280;53009;52.490;4.976;2023-02-18T14:52:29;101900;;;12;100
66206;BME280;53009;52.490;4.976;2023-02-18T14:57:31;101900;;;12.1;100
66206;BME280;53009;52.490;4.976;2023-02-18T15:02:34;101900;;;12;100
66206;BME280;53009;52.490;4.976;2023-02-18T15:07:29;101900;;;11.9;100
66206;BME280;53009;52.490;4.976;2023-02-18T15:12:29;101900;;;11.9;100
66206;BME280;53009;52.490;4.976;2023-02-18T15:17:29;101900;;;11.9;100
66206;BME280;53009;52.490;4.976;2023-02-18T15:22:30;101900;;;11.8;100
66206;BME280;53009;52.490;4.976;2023-02-18T15:27:29;101900;;;11.8;100
66206;BME280;53009;52.490;4.976;2023-02-18T15:32:30;101900;;;11.7;100
66206;BME280;53009;52.490;4.976;2023-02-18T15:37:29;101900;;;11.6;100
66206;BME280;53009;52.490;4.976;2023-02-18T15:42:30;101900;;;11.6;100
66206;BME280;53009;52.490;4.976;2023-02-18T15:47:29;101900;;;11.5;100
66206;BME280;53009;52.490;4.976;2023-02-18T15:52:30;101900;;;11.5;100
66206;BME280;53009;52.490;4.976;2023-02-18T15:57:29;101900;;;11.5;100
66206;BME280;53009;52.490;4.976;2023-02-18T16:02:30;101900;;;11.5;100
66206;BME280;53009;52.490;4.976;2023-02-18T16:07:30;101900;;;11.5;100
66206;BME280;53009;52.490;4.976;2023-02-18T16:12:30;101900;;;11.4;100
66206;BME280;53009;52.490;4.976;2023-02-18T16:17:29;101900;;;11.4;100
66206;BME280;53009;52.490;4.976;2023-02-18T16:22:33;101900;;;11.4;100
66206;BME280;53009;52.490;4.976;2023-02-18T16:27:31;101900;;;11.3;100
66206;BME280;53009;52.490;4.976;2023-02-18T16:32:29;101900;;;11.3;100
66206;BME280;53009;52.490;4.976;2023-02-18T16:37:29;101900;;;11.3;100
66206;BME280;53009;52.490;4.976;2023-02-18T16:42:29;101900;;;11.2;100
66206;BME280;53009;52.490;4.976;2023-02-18T16:47:29;101900;;;11.1;100
66206;BME280;53009;52.490;4.976;2023-02-18T16:52:29;101900;;;11.1;100
66206;BME280;53009;52.490;4.976;2023-02-18T16:57:29;101900;;;11;100
66206;BME280;53009;52.490;4.976;2023-02-18T17:02:29;101900;;;11;100
66206;BME280;53009;52.490;4.976;2023-02-18T17:07:29;101900;;;11;100
66206;BME280;53009;52.490;4.976;2023-02-18T17:12:29;101900;;;11;100
66206;BME280;53009;52.490;4.976;2023-02-18T17:17:29;101900;;;11;100
66206;BME280;53009;52.490;4.976;2023-02-18T17:22:29;101900;;;10.9;100
66206;BME280;53009;52.490;4.976;2023-02-18T17:27:29;101900;;;10.8;100
66206;BME280;53009;52.490;4.976;2023-02-18T17:32:29;101900;;;10.8;100
66206;BME280;53009;52.490;4.976;2023-02-18T17:37:29;101900;;;10.8;100
66206;BME280;53009;52.490;4.976;2023-02-18T17:42:29;101900;;;10.8;100
66206;BME280;53009;52.490;4.976;2023-02-18T17:47:29;101900;;;10.8;100
66206;BME280;53009;52.490;4.976;2023-02-18T17:52:29;101900;;;10.8;100
66206;BME280;53009;52.490;4.976;2023-02-18T17:57:29;101900;;;10.8;100
66206;BME280;53009;52.490;4.976;2023-02-18T18:02:29;101900;;;10.7;100
66206;BME280;53009;52.490;4.976;2023-02-18T18:07:29;101900;;;10.7;100
66206;BME280;53009;52.490;4.976;2023-02-18T18:12:29;101900;;;10.7;100
66206;BME280;53009;52.490;4.976;2023-02-18T18:17:29;101900;;;10.6;100
66206;BME280;53009;52.490;4.976;2023-02-18T18:22:29;101900;;;10.6;100
66206;BME280;53009;52.490;4.976;2023-02-18T18:27:29;101900;;;10.6;100
66206;BME280;53009;52.490;4.976;2023-02-18T18:32:29;101900;;;10.6;100
66206;BME280;53009;52.490;4.976;2023-02-18T18:37:29;101900;;;10.6;100
66206;BME280;53009;52.490;4.976;2023-02-18T18:42:30;101900;;;10.7;100
66206;BME280;53009;52.490;4.976;2023-02-18T18:47:29;101900;;;10.7;100
66206;BME280;53009;52.490;4.976;2023-02-18T18:52:29;101900;;;10.7;100
66206;BME280;53009;52.490;4.976;2023-02-18T18:57:29;101900;;;10.6;100
66206;BME280;53009;52.490;4.976;2023-02-18T19:02:29;101900;;;10.6;100
66206;BME280;53009;52.490;4.976;2023-02-18T19:07:29;101900;;;10.7;100
66206;BME280;53009;52.490;4.976;2023-02-18T19:12:30;101900;;;10.7;100
66206;BME280;53009;52.490;4.976;2023-02-18T19:17:29;101900;;;10.6;100
66206;BME280;53009;52.490;4.976;2023-02-18T19:22:29;101900;;;10.6;100
66206;BME280;53009;52.490;4.976;2023-02-18T19:27:29;101900;;;10.6;100
66206;BME280;53009;52.490;4.976;2023-02-18T19:32:29;101900;;;10.6;100
66206;BME280;53009;52.490;4.976;2023-02-18T19:37:30;101900;;;10.6;100
66206;BME280;53009;52.490;4.976;2023-02-18T19:42:30;101900;;;10.6;100
66206;BME280;53009;52.490;4.976;2023-02-18T19:47:29;101900;;;10.5;100
66206;BME280;53009;52.490;4.976;2023-02-18T19:48:27;101900;;;10.5;100
66206;BME280;53009;52.490;4.976;2023-02-18T19:53:25;101900;;;10.5;100
66206;BME280;53009;52.490;4.976;2023-02-18T19:54:31;101900;;;10.5;100
66206;BME280;53009;52.490;4.976;2023-02-18T19:57:06;101800;;;10.5;100
66206;BME280;53009;52.490;4.976;2023-02-18T19:58:48;101800;;;10.5;100
66206;BME280;53009;52.490;4.976;2023-02-18T20:02:58;101800;;;10.5;100
66206;BME280;53009;52.490;4.976;2023-02-18T20:04:19;101800;;;10.5;100
66206;BME280;53009;52.490;4.976;2023-02-18T20:05:18;101800;;;10.5;100
66206;BME280;53009;52.490;4.976;2023-02-18T20:07:36;101800;;;10.5;100
66206;BME280;53009;52.490;4.976;2023-02-18T20:08:58;101800;;;10.5;100
66206;BME280;53009;52.490;4.976;2023-02-18T20:12:20;101900;;;10.5;100
66206;BME280;53009;52.490;4.976;2023-02-18T20:17:04;101800;;;10.5;100
66206;BME280;53009;52.490;4.976;2023-02-18T20:18:10;101800;;;10.5;100
66206;BME280;53009;52.490;4.976;2023-02-18T20:19:24;101800;;;10.5;100
66206;BME280;53009;52.490;4.976;2023-02-18T20:24:24;101800;;;10.6;100
66206;BME280;53009;52.490;4.976;2023-02-18T20:29:25;101800;;;10.6;100
66206;BME280;53009;52.490;4.976;2023-02-18T20:34:24;101800;;;10.6;100
66206;BME280;53009;52.490;4.976;2023-02-18T20:39:24;101800;;;10.6;100
66206;BME280;53009;52.490;4.976;2023-02-18T20:44:24;101800;;;10.5;100
66206;BME280;53009;52.490;4.976;2023-02-18T20:49:24;101800;;;10.5;100
66206;BME280;53009;52.490;4.976;2023-02-18T20:54:24;101800;;;10.5;100
66206;BME280;53009;52.490;4.976;2023-02-18T20:59:24;101800;;;10.4;100
66206;BME280;53009;52.490;4.976;2023-02-18T21:04:24;101800;;;10.4;100
66206;BME280;53009;52.490;4.976;2023-02-18T21:09:24;101800;;;10.4;100
66206;BME280;53009;52.490;4.976;2023-02-18T21:14:24;101800;;;10.4;100
66206;BME280;53009;52.490;4.976;2023-02-18T21:19:24;101800;;;10.3;100
66206;BME280;53009;52.490;4.976;2023-02-18T21:24:24;101800;;;10.4;100
66206;BME280;53009;52.490;4.976;2023-02-18T21:29:24;101800;;;10.4;100
66206;BME280;53009;52.490;4.976;2023-02-18T21:34:24;101800;;;10.4;100
66206;BME280;53009;52.490;4.976;2023-02-18T21:39:24;101800;;;10.3;100
66206;BME280;53009;52.490;4.976;2023-02-18T21:44:24;101800;;;10.3;100
66206;BME280;53009;52.490;4.976;2023-02-18T21:49:24;101800;;;10.3;100
66206;BME280;53009;52.490;4.976;2023-02-18T21:54:25;101800;;;10.2;100
66206;BME280;53009;52.490;4.976;2023-02-18T21:59:25;101800;;;10.3;100
66206;BME280;53009;52.490;4.976;2023-02-18T22:04:24;101800;;;10.2;100
66206;BME280;53009;52.490;4.976;2023-02-18T22:09:24;101800;;;10.2;100
66206;BME280;53009;52.490;4.976;2023-02-18T22:14:24;101800;;;10.2;100
66206;BME280;53009;52.490;4.976;2023-02-18T22:19:24;101800;;;10.2;100
66206;BME280;53009;52.490;4.976;2023-02-18T22:24:24;101800;;;10.2;100
66206;BME280;53009;52.490;4.976;2023-02-18T22:29:24;101800;;;10.2;100
66206;BME280;53009;52.490;4.976;2023-02-18T22:34:24;101800;;;10.1;100
66206;BME280;53009;52.490;4.976;2023-02-18T22:39:24;101800;;;10.2;100
66206;BME280;53009;52.490;4.976;2023-02-18T22:44:24;101800;;;10.2;100
66206;BME280;53009;52.490;4.976;2023-02-18T22:49:24;101800;;;10.1;100
66206;BME280;53009;52.490;4.976;2023-02-18T22:54:24;101800;;;10.1;100
66206;BME280;53009;52.490;4.976;2023-02-18T22:59:24;101800;;;10.1;100
66206;BME280;53009;52.490;4.976;2023-02-18T23:04:24;101800;;;10.1;100
66206;BME280;53009;52.490;4.976;2023-02-18T23:09:24;101800;;;10.1;100
66206;BME280;53009;52.490;4.976;2023-02-18T23:14:25;101800;;;10.1;100
66206;BME280;53009;52.490;4.976;2023-02-18T23:19:25;101800;;;10.2;100
66206;BME280;53009;52.490;4.976;2023-02-18T23:24:24;101800;;;10.2;100
66206;BME280;53009;52.490;4.976;2023-02-18T23:29:24;101800;;;10.2;100
66206;BME280;53009;52.490;4.976;2023-02-18T23:34:24;101800;;;10.2;100
66206;BME280;53009;52.490;4.976;2023-02-18T23:39:24;101800;;;10.2;100
66206;BME280;53009;52.490;4.976;2023-02-18T23:44:24;101800;;;10.2;100
66206;BME280;53009;52.490;4.976;2023-02-18T23:49:25;101800;;;10.2;100
66206;BME280;53009;52.490;4.976;2023-02-18T23:54:24;101800;;;10.2;100
66206;BME280;53009;52.490;4.976;2023-02-18T23:59:24;101800;;;10.2;100
